Phillipsport, New York
Current Conditions -  °F | °C
As of 10:54 AM on Thursday 27 Nov 2014 (Local Time) from KMGJ Reporting Station
Light Snow Light Snow  
Wind Chill: 33°   Ceiling: 500
Heat Index: 33°   Visibility: 1mi
Dew Point: 31°   Wind: 0mph
Humidity: 92%   Direction: NA
Pressure: 29.99"   Gusts: NA
Location:  41.65°N, 74.44°W
Report Text: KMGJ 271554Z AUTO 00000KT 1SM -SN BR BKN005 OVC009 01/M01 A2999 RMK AO2 CIG 004V008 SLP159 P0003 T00061006 TSNO $
Loading
Personal Weather Stations






























Interactive Weather Map New forecast layout! Learn more

10-Day Weather Forecast

Advertisements
Track Severe Weather on mobile